Time;durP1;ratioP1;P1;durP2;ratioP2;P2;SDS_P1;SDS_P2;PMS_P1;PMS_P2;Temp;Humidity;BMP_temperature;BMP_pressure;BME280_temperature;BME280_humidity;BME280_pressure;Samples;Min_cycle;Max_cycle;Signal;HPM_P1;HPM_P2
2023/06/29 00:00:40;;;;;;;19.13;14.98;;;;;;;19.32;100.00;101384.66;5070683;28;20095;-53
2023/06/29 00:03:05;;;;;;;18.90;14.82;;;;;;;19.76;100.00;101451.44;5072140;28;20024;-52
2023/06/29 00:05:31;;;;;;;19.77;14.60;;;;;;;19.89;100.00;101487.13;5054071;28;20086;-52
2023/06/29 00:07:58;;;;;;;19.05;16.08;;;;;;;19.87;100.00;101505.09;5065290;28;20036;-53
2023/06/29 00:10:25;;;;;;;16.88;13.60;;;;;;;19.96;100.00;101512.53;5052302;28;20052;-54
2023/06/29 00:12:50;;;;;;;18.25;13.80;;;;;;;19.83;100.00;101491.03;5052424;28;20032;-52
2023/06/29 00:15:15;;;;;;;20.67;14.77;;;;;;;19.52;100.00;101438.63;5052437;28;20496;-52
2023/06/29 00:17:41;;;;;;;20.92;15.20;;;;;;;19.53;100.00;101448.34;5070409;28;20158;-54
2023/06/29 00:20:13;;;;;;;19.67;14.98;;;;;;;19.79;100.00;101491.34;5069029;28;20447;-52
2023/06/29 00:22:40;;;;;;;18.60;14.80;;;;;;;19.45;100.00;101439.94;5059388;28;20122;-52
2023/06/29 00:25:10;;;;;;;21.50;16.50;;;;;;;19.74;100.00;101490.72;5066153;28;20037;-55
2023/06/29 00:27:35;;;;;;;18.95;15.30;;;;;;;19.39;100.00;101439.44;5060873;28;20527;-54
2023/06/29 00:30:01;;;;;;;20.10;15.02;;;;;;;19.65;100.00;101479.66;5068179;28;20131;-55
2023/06/29 00:32:26;;;;;;;19.80;14.43;;;;;;;19.67;100.00;101493.75;5051304;28;20037;-54
2023/06/29 00:34:52;;;;;;;20.80;15.43;;;;;;;19.37;100.00;101438.63;5065885;28;20091;-50
2023/06/29 00:37:17;;;;;;;16.38;14.57;;;;;;;19.75;100.00;101485.31;5052171;28;20037;-54
2023/06/29 00:39:42;;;;;;;19.40;14.73;;;;;;;19.67;100.00;101473.38;5051934;28;20040;-58
2023/06/29 00:42:08;;;;;;;21.88;16.10;;;;;;;19.62;100.00;101460.28;5052069;28;20124;-55
2023/06/29 00:44:33;;;;;;;19.92;14.75;;;;;;;19.66;100.00;101475.19;5055976;28;20051;-51
2023/06/29 00:46:59;;;;;;;20.10;15.93;;;;;;;19.30;100.00;101419.44;5071747;28;20541;-53
2023/06/29 00:49:24;;;;;;;20.95;16.35;;;;;;;19.54;100.00;101450.06;5070730;28;20041;-50
2023/06/29 00:51:51;;;;;;;19.98;15.00;;;;;;;19.59;100.00;101452.44;5068439;28;20468;-52
2023/06/29 00:54:20;;;;;;;21.33;14.75;;;;;;;19.67;100.00;101469.72;5052589;28;20052;-53
2023/06/29 00:56:46;;;;;;;22.05;15.98;;;;;;;19.68;100.00;101465.25;5070718;28;20055;-51
2023/06/29 00:59:11;;;;;;;22.42;16.45;;;;;;;19.60;100.00;101455.03;5065570;28;20474;-53
2023/06/29 01:01:41;;;;;;;20.85;16.77;;;;;;;19.25;100.00;101405.53;5051668;28;20495;-55
2023/06/29 01:04:09;;;;;;;19.88;16.00;;;;;;;19.56;100.00;101466.84;5071232;28;20127;-53
2023/06/29 01:06:47;;;;;;;20.58;15.90;;;;;;;19.58;100.00;101472.13;5074455;28;20479;-54
2023/06/29 01:09:14;;;;;;;18.50;16.23;;;;;;;19.18;100.00;101401.50;5073485;28;20399;-50
2023/06/29 01:11:40;;;;;;;22.30;16.38;;;;;;;19.49;100.00;101445.97;5057097;28;20182;-53
2023/06/29 01:14:06;;;;;;;22.95;16.90;;;;;;;19.55;100.00;101458.94;5059789;28;20115;-52
2023/06/29 01:16:33;;;;;;;19.52;15.73;;;;;;;19.17;100.00;101401.59;5074346;28;20036;-52
2023/06/29 01:19:00;;;;;;;22.67;17.08;;;;;;;19.44;100.00;101448.88;5074665;28;20108;-53
2023/06/29 01:21:27;;;;;;;21.48;16.33;;;;;;;19.14;100.00;101380.44;5074177;28;20042;-53
2023/06/29 01:23:55;;;;;;;22.55;17.15;;;;;;;19.36;100.00;101418.22;5061160;28;20079;-52
2023/06/29 01:26:20;;;;;;;23.17;16.75;;;;;;;19.18;100.00;101387.28;5053949;28;20040;-52
2023/06/29 01:28:48;;;;;;;22.83;17.45;;;;;;;19.29;100.00;101407.06;5055220;28;20037;-54
2023/06/29 01:31:14;;;;;;;20.15;16.65;;;;;;;19.41;100.00;101417.03;5055332;28;20033;-52
2023/06/29 01:33:40;;;;;;;20.45;16.98;;;;;;;19.15;100.00;101374.97;5054725;28;20515;-54
2023/06/29 01:36:11;;;;;;;24.40;16.02;;;;;;;19.50;100.00;101431.63;5037307;28;20094;-53
2023/06/29 01:38:40;;;;;;;24.65;17.52;;;;;;;19.20;100.00;101380.06;5054931;28;20070;-53
2023/06/29 01:41:06;;;;;;;24.02;17.92;;;;;;;19.46;100.00;101416.78;5054729;28;20029;-52
2023/06/29 01:43:32;;;;;;;21.17;17.45;;;;;;;19.54;100.00;101435.84;5053733;28;20045;-54
2023/06/29 01:45:58;;;;;;;26.75;19.35;;;;;;;19.13;100.00;101357.34;5053711;28;20037;-56
2023/06/29 01:48:23;;;;;;;23.83;17.40;;;;;;;19.09;100.00;101352.19;5053609;28;20037;-52
2023/06/29 01:50:49;;;;;;;22.15;17.15;;;;;;;19.42;100.00;101404.53;5053686;28;20124;-52
2023/06/29 01:53:14;;;;;;;25.05;18.13;;;;;;;19.48;100.00;101421.06;5062075;28;20040;-54
2023/06/29 01:55:39;;;;;;;22.63;17.80;;;;;;;19.43;100.00;101411.63;5056767;28;20119;-52
2023/06/29 01:58:05;;;;;;;24.98;19.15;;;;;;;19.05;100.00;101353.34;5074554;28;20043;-57
2023/06/29 02:00:30;;;;;;;27.02;18.73;;;;;;;19.15;100.00;101369.66;5074616;28;20055;-56
2023/06/29 02:02:56;;;;;;;27.60;18.15;;;;;;;19.42;100.00;101416.09;5073460;28;20110;-53
2023/06/29 02:05:21;;;;;;;27.73;19.10;;;;;;;19.42;100.00;101413.41;5056532;28;20064;-54
2023/06/29 02:07:46;;;;;;;22.85;18.33;;;;;;;19.14;100.00;101367.09;5074340;28;20032;-51
2023/06/29 02:10:12;;;;;;;25.15;19.80;;;;;;;19.06;100.00;101356.84;5073302;28;20464;-55
2023/06/29 02:12:39;;;;;;;26.80;19.42;;;;;;;18.97;100.00;101342.25;5068951;28;20547;-55
2023/06/29 02:15:05;;;;;;;25.77;17.98;;;;;;;19.26;100.00;101390.38;5053335;28;20499;-54
2023/06/29 02:17:30;;;;;;;23.30;20.13;;;;;;;19.10;100.00;101372.59;5072352;28;20036;-53
2023/06/29 02:19:56;;;;;;;25.27;18.55;;;;;;;18.92;100.00;101331.00;5072758;28;20044;-54
2023/06/29 02:22:21;;;;;;;23.88;18.80;;;;;;;19.21;100.00;101390.63;5073187;28;20040;-57
2023/06/29 02:24:46;;;;;;;24.60;18.88;;;;;;;18.93;100.00;101338.06;5074329;28;20098;-54
2023/06/29 02:27:12;;;;;;;23.83;18.63;;;;;;;18.94;100.00;101334.41;5055191;28;20080;-54
2023/06/29 02:29:37;;;;;;;26.23;19.52;;;;;;;19.28;100.00;101388.47;5074266;28;20127;-53
2023/06/29 02:32:03;;;;;;;26.15;20.35;;;;;;;18.87;100.00;101314.41;5074382;28;20115;-55
2023/06/29 02:34:29;;;;;;;22.95;19.15;;;;;;;18.92;100.00;101314.13;5072275;28;20044;-53
2023/06/29 02:36:55;;;;;;;26.27;20.45;;;;;;;19.10;100.00;101353.91;5073928;28;20487;-52
2023/06/29 02:39:20;;;;;;;23.45;20.02;;;;;;;19.24;100.00;101382.44;5074356;28;20067;-55
2023/06/29 02:41:45;;;;;;;26.85;21.05;;;;;;;18.90;100.00;101319.56;5073884;28;20075;-51
2023/06/29 02:44:11;;;;;;;28.52;21.10;;;;;;;18.86;100.00;101301.16;5071448;28;20068;-50
2023/06/29 02:46:36;;;;;;;30.63;21.95;;;;;;;19.19;100.00;101355.19;5073698;28;20043;-52
2023/06/29 02:49:01;;;;;;;27.08;21.77;;;;;;;18.87;100.00;101301.06;5073828;28;20041;-55
2023/06/29 02:51:27;;;;;;;26.40;20.95;;;;;;;19.29;100.00;101375.03;5073790;28;20451;-57
2023/06/29 02:53:52;;;;;;;32.70;21.90;;;;;;;19.33;100.00;101379.22;5072490;28;20033;-54
2023/06/29 02:56:17;;;;;;;29.40;21.35;;;;;;;19.33;100.00;101368.56;5055440;28;20032;-51
2023/06/29 02:58:43;;;;;;;27.90;21.90;;;;;;;19.35;100.00;101373.81;5073683;28;20139;-53
2023/06/29 03:01:08;;;;;;;29.23;22.52;;;;;;;19.35;100.00;101363.13;5073128;28;20036;-51
2023/06/29 03:03:33;;;;;;;28.08;22.67;;;;;;;19.02;100.00;101305.50;5072565;28;20044;-53
2023/06/29 03:05:59;;;;;;;26.80;22.15;;;;;;;19.40;100.00;101358.41;5072399;28;20037;-55
2023/06/29 03:08:24;;;;;;;30.33;23.35;;;;;;;18.99;100.00;101286.16;5073131;28;20044;-57
2023/06/29 03:10:49;;;;;;;27.73;23.15;;;;;;;19.41;100.00;101352.13;5071454;28;20029;-51
2023/06/29 03:13:15;;;;;;;33.03;23.20;;;;;;;19.36;100.00;101338.13;5072005;28;20039;-55
2023/06/29 03:15:40;;;;;;;30.88;23.52;;;;;;;19.32;100.00;101326.78;5072177;28;20032;-50
2023/06/29 03:18:05;;;;;;;32.17;23.35;;;;;;;19.42;100.00;101344.00;5073226;28;20032;-52
2023/06/29 03:20:31;;;;;;;27.70;22.95;;;;;;;18.73;100.00;101228.16;5073150;28;20627;-51
2023/06/29 03:22:56;;;;;;;31.00;24.30;;;;;;;19.43;100.00;101351.06;5070918;28;20430;-53
2023/06/29 03:25:21;;;;;;;34.72;24.60;;;;;;;19.03;100.00;101269.84;5072930;28;20111;-56
2023/06/29 03:27:47;;;;;;;31.05;22.90;;;;;;;19.41;100.00;101342.28;5072896;28;20037;-51
2023/06/29 03:30:12;;;;;;;32.95;25.52;;;;;;;18.97;100.00;101253.38;5073094;28;20385;-55
2023/06/29 03:32:37;;;;;;;39.38;23.65;;;;;;;19.42;100.00;101341.34;5071543;28;20036;-52
2023/06/29 03:35:03;;;;;;;32.50;24.20;;;;;;;19.05;100.00;101270.63;5072785;28;20093;-51
2023/06/29 03:37:29;;;;;;;33.15;23.63;;;;;;;18.96;100.00;101248.97;5071283;28;20029;-58
2023/06/29 03:39:54;;;;;;;32.72;24.20;;;;;;;19.46;100.00;101334.88;5072530;28;20532;-56
2023/06/29 03:42:19;;;;;;;27.30;23.20;;;;;;;19.12;100.00;101268.44;5070299;28;20070;-57
2023/06/29 03:44:45;;;;;;;31.23;23.50;;;;;;;19.45;100.00;101329.59;5062381;28;20435;-58
2023/06/29 03:47:10;;;;;;;29.15;23.27;;;;;;;19.46;100.00;101332.19;5052809;28;20032;-55
2023/06/29 03:49:35;;;;;;;33.22;24.92;;;;;;;19.49;100.00;101329.34;5052451;28;20400;-51
2023/06/29 03:52:01;;;;;;;30.80;23.33;;;;;;;19.48;100.00;101324.94;5069113;28;20040;-54
2023/06/29 03:54:27;;;;;;;32.78;24.45;;;;;;;19.38;100.00;101317.56;5071051;28;20460;-57
2023/06/29 03:56:54;;;;;;;29.90;23.17;;;;;;;19.45;100.00;101332.28;5055032;28;20036;-53
2023/06/29 03:59:19;;;;;;;31.83;24.15;;;;;;;19.45;100.00;101335.81;5072473;28;20044;-53
2023/06/29 04:01:44;;;;;;;28.35;21.27;;;;;;;19.42;100.00;101336.00;5072566;28;20553;-52
2023/06/29 04:04:09;;;;;;;25.73;22.05;;;;;;;19.40;100.00;101335.25;5066050;28;20547;-56
2023/06/29 04:06:35;;;;;;;32.75;22.92;;;;;;;19.35;100.00;101329.25;5051887;28;20523;-55
2023/06/29 04:09:00;;;;;;;26.20;22.02;;;;;;;19.36;100.00;101331.00;5053217;28;20041;-55
2023/06/29 04:11:25;;;;;;;24.50;21.00;;;;;;;19.06;100.00;101272.31;5054008;28;20033;-55
2023/06/29 04:13:51;;;;;;;27.85;21.42;;;;;;;19.33;100.00;101341.00;5061902;28;20029;-51
2023/06/29 04:16:16;;;;;;;26.25;20.55;;;;;;;19.20;100.00;101308.88;5072304;28;20048;-58
2023/06/29 04:18:41;;;;;;;27.33;20.13;;;;;;;19.35;100.00;101339.94;5072159;28;20085;-52
2023/06/29 04:21:07;;;;;;;26.85;19.88;;;;;;;18.99;100.00;101275.47;5072112;28;20032;-55
2023/06/29 04:23:32;;;;;;;22.10;18.95;;;;;;;18.90;100.00;101265.34;5070661;28;20522;-56
2023/06/29 04:26:02;;;;;;;25.42;20.05;;;;;;;19.30;100.00;101328.69;5072440;28;20048;-54
2023/06/29 04:28:28;;;;;;;22.65;19.02;;;;;;;19.00;100.00;101277.19;5072267;28;20047;-54
2023/06/29 04:30:53;;;;;;;25.20;19.13;;;;;;;19.23;100.00;101321.16;5064283;28;20111;-52
2023/06/29 04:33:19;;;;;;;23.52;19.42;;;;;;;19.30;100.00;101327.81;5055853;28;20044;-52
2023/06/29 04:35:45;;;;;;;24.83;18.80;;;;;;;18.86;100.00;101255.81;5071234;28;20116;-53
2023/06/29 04:38:13;;;;;;;22.23;18.20;;;;;;;19.30;100.00;101319.81;5074053;28;20120;-52
2023/06/29 04:40:38;;;;;;;22.42;18.58;;;;;;;19.27;100.00;101322.69;5057740;28;20047;-52
2023/06/29 04:43:04;;;;;;;21.33;18.75;;;;;;;19.22;100.00;101327.44;5074865;28;20036;-52
2023/06/29 04:45:31;;;;;;;25.00;18.95;;;;;;;18.94;100.00;101261.56;5076257;28;20072;-52
2023/06/29 04:47:57;;;;;;;23.60;18.20;;;;;;;18.90;100.00;101252.88;5075821;28;20032;-56
2023/06/29 04:50:25;;;;;;;25.48;18.10;;;;;;;19.32;100.00;101320.59;5074867;28;20025;-54
2023/06/29 04:52:54;;;;;;;25.05;18.25;;;;;;;19.28;100.00;101319.06;5074886;28;20036;-51
2023/06/29 04:55:20;;;;;;;23.27;19.00;;;;;;;19.40;100.00;101329.91;5055914;28;20048;-54
2023/06/29 04:57:45;;;;;;;23.50;19.27;;;;;;;19.37;100.00;101321.19;5055619;28;20400;-49
2023/06/29 05:00:11;;;;;;;21.98;18.20;;;;;;;19.10;100.00;101270.34;5052496;28;20407;-50
2023/06/29 05:02:38;;;;;;;23.70;18.83;;;;;;;19.22;100.00;101300.75;5075869;28;20049;-55
2023/06/29 05:05:04;;;;;;;24.00;18.60;;;;;;;19.09;100.00;101273.94;5073686;28;20040;-56
2023/06/29 05:07:29;;;;;;;25.60;19.40;;;;;;;19.44;100.00;101339.41;5054952;28;20041;-50
2023/06/29 05:09:55;;;;;;;24.73;19.33;;;;;;;19.45;100.00;101333.13;5069665;28;20111;-52
2023/06/29 05:12:20;;;;;;;28.42;20.08;;;;;;;19.34;100.00;101303.53;5075808;28;20041;-55
2023/06/29 05:14:45;;;;;;;33.70;20.10;;;;;;;19.06;100.00;101255.44;5075665;28;20047;-55
2023/06/29 05:17:11;;;;;;;21.88;19.13;;;;;;;19.18;100.00;101275.19;5057098;28;20033;-53
2023/06/29 05:19:36;;;;;;;29.52;21.45;;;;;;;19.46;100.00;101312.63;5056559;28;20044;-52
2023/06/29 05:22:02;;;;;;;25.83;20.90;;;;;;;19.39;100.00;101305.94;5053941;28;20037;-51
2023/06/29 05:24:29;;;;;;;30.45;21.90;;;;;;;19.32;100.00;101288.56;5054051;28;20069;-49
2023/06/29 05:26:55;;;;;;;26.10;21.05;;;;;;;19.49;100.00;101307.97;5055540;28;20078;-55
2023/06/29 05:29:20;;;;;;;24.30;21.23;;;;;;;19.19;100.00;101267.09;5054750;28;20131;-58
2023/06/29 05:31:45;;;;;;;27.23;23.55;;;;;;;19.53;100.00;101313.97;5055325;28;20118;-52
2023/06/29 05:34:11;;;;;;;27.23;21.40;;;;;;;19.24;100.00;101249.00;5055345;28;20033;-54
2023/06/29 05:36:36;;;;;;;27.55;22.38;;;;;;;19.63;100.00;101304.44;5055242;28;20198;-52
2023/06/29 05:39:02;;;;;;;26.48;23.35;;;;;;;19.32;100.00;101248.53;5060555;28;20447;-51
2023/06/29 05:41:27;;;;;;;31.00;24.27;;;;;;;19.01;100.00;101185.50;5074863;28;20043;-50
2023/06/29 05:43:52;;;;;;;31.70;24.42;;;;;;;19.70;100.00;101311.13;5075143;28;20051;-51
2023/06/29 05:46:18;;;;;;;33.08;26.13;;;;;;;19.34;100.00;101246.63;5071037;28;20037;-54
2023/06/29 05:48:43;;;;;;;29.42;24.10;;;;;;;19.67;100.00;101307.78;5074163;28;20037;-55
2023/06/29 05:51:08;;;;;;;34.85;26.20;;;;;;;19.62;100.00;101305.38;5074635;28;20040;-54
2023/06/29 05:53:34;;;;;;;35.25;27.02;;;;;;;19.62;100.00;101316.94;5074535;28;20036;-52
2023/06/29 05:55:59;;;;;;;37.55;27.38;;;;;;;19.60;100.00;101316.16;5074792;28;20498;-51
2023/06/29 05:58:24;;;;;;;38.65;27.45;;;;;;;19.28;100.00;101261.22;5071367;28;20464;-54
2023/06/29 06:00:51;;;;;;;36.50;28.20;;;;;;;19.57;100.00;101326.19;5074477;28;20053;-52
2023/06/29 06:03:16;;;;;;;38.08;27.92;;;;;;;19.57;100.00;101312.84;5073360;28;20043;-52
2023/06/29 06:05:41;;;;;;;36.88;27.52;;;;;;;19.16;100.00;101256.63;5074552;28;20025;-52
2023/06/29 06:08:07;;;;;;;35.78;27.55;;;;;;;19.32;100.00;101270.72;5073171;28;20044;-49
2023/06/29 06:10:32;;;;;;;34.17;27.60;;;;;;;18.90;100.00;101188.00;5074493;28;20167;-54
2023/06/29 06:12:57;;;;;;;40.90;29.05;;;;;;;19.67;100.00;101311.31;5074476;28;20032;-53
2023/06/29 06:15:22;;;;;;;38.97;29.27;;;;;;;19.32;100.00;101244.03;5074509;28;20535;-55
2023/06/29 06:17:48;;;;;;;37.97;29.42;;;;;;;19.37;100.00;101244.63;5073216;28;20082;-53
2023/06/29 06:20:13;;;;;;;36.72;28.23;;;;;;;19.40;100.00;101241.81;5074437;28;20039;-51
2023/06/29 06:22:39;;;;;;;38.35;29.63;;;;;;;19.60;100.00;101283.25;5074310;28;20611;-52
2023/06/29 06:25:05;;;;;;;37.85;29.00;;;;;;;19.75;100.00;101295.66;5074209;28;20036;-54
2023/06/29 06:27:30;;;;;;;40.20;30.58;;;;;;;19.55;100.00;101254.19;5047861;28;20063;-52
2023/06/29 06:29:56;;;;;;;35.90;28.17;;;;;;;19.92;100.00;101306.13;5053256;28;20035;-52
2023/06/29 06:32:24;;;;;;;36.00;28.17;;;;;;;19.96;100.00;101309.47;5054127;28;20028;-52
2023/06/29 06:34:50;;;;;;;40.28;29.98;;;;;;;19.96;100.00;101302.31;5053970;28;20449;-57
2023/06/29 06:37:16;;;;;;;40.35;30.25;;;;;;;20.03;100.00;101327.69;5059767;28;20445;-54
2023/06/29 06:39:41;;;;;;;39.92;31.63;;;;;;;19.60;100.00;101245.88;5063246;28;20033;-54
2023/06/29 06:42:07;;;;;;;41.67;31.70;;;;;;;19.60;100.00;101252.09;5054195;28;20040;-54
2023/06/29 06:44:32;;;;;;;39.78;30.73;;;;;;;19.61;100.00;101251.09;5053998;28;20044;-55
2023/06/29 06:46:57;;;;;;;43.08;32.42;;;;;;;20.00;100.00;101311.84;5053130;28;20459;-57
2023/06/29 06:49:23;;;;;;;41.42;33.08;;;;;;;20.02;100.00;101306.41;5053174;28;20118;-55
2023/06/29 06:51:49;;;;;;;40.95;31.83;;;;;;;19.71;100.00;101254.06;5053759;28;20111;-51
2023/06/29 06:54:14;;;;;;;45.08;31.75;;;;;;;20.08;100.00;101301.50;5053854;28;20104;-56
2023/06/29 06:56:40;;;;;;;43.83;30.95;;;;;;;19.86;100.00;101253.09;5069302;28;20515;-51
2023/06/29 06:59:07;;;;;;;39.22;31.42;;;;;;;20.32;100.00;101328.50;5073503;28;20040;-54
2023/06/29 07:01:32;;;;;;;39.42;29.83;;;;;;;20.05;100.00;101258.13;5059936;28;20032;-53
2023/06/29 07:03:58;;;;;;;40.22;30.27;;;;;;;20.38;100.00;101316.53;5053400;28;20468;-55
2023/06/29 07:06:23;;;;;;;37.42;28.80;;;;;;;20.28;100.00;101272.66;5053519;28;20128;-51
2023/06/29 07:08:48;;;;;;;37.55;28.67;;;;;;;20.35;100.00;101249.91;5070149;28;20045;-55
2023/06/29 07:11:14;;;;;;;40.25;29.17;;;;;;;20.86;100.00;101315.97;5057572;28;20041;-52
2023/06/29 07:13:39;;;;;;;33.70;27.95;;;;;;;20.42;100.00;101244.06;5054578;28;20519;-53
2023/06/29 07:16:06;;;;;;;36.38;27.75;;;;;;;20.99;100.00;101324.88;5059493;28;20487;-52
2023/06/29 07:18:34;;;;;;;38.72;29.13;;;;;;;20.52;100.00;101260.34;5068038;28;20040;-53
2023/06/29 07:20:59;;;;;;;37.67;27.40;;;;;;;20.82;100.00;101300.22;5073021;28;20455;-57
2023/06/29 07:23:24;;;;;;;33.40;26.77;;;;;;;20.52;100.00;101261.19;5073198;28;20064;-56
2023/06/29 07:25:50;;;;;;;35.03;26.00;;;;;;;20.68;100.00;101274.41;5055431;28;20522;-56
2023/06/29 07:28:15;;;;;;;36.15;27.33;;;;;;;20.65;100.00;101264.78;5058739;28;20490;-54
2023/06/29 07:30:41;;;;;;;33.70;26.52;;;;;;;20.92;100.00;101314.69;5052858;28;20037;-55
2023/06/29 07:33:06;;;;;;;32.45;24.83;;;;;;;21.06;100.00;101312.81;5052766;28;20469;-53
2023/06/29 07:35:31;;;;;;;35.85;26.27;;;;;;;20.86;100.00;101241.06;5052842;28;20033;-55
2023/06/29 07:37:56;;;;;;;30.70;25.33;;;;;;;21.32;100.00;101303.00;5062315;28;20041;-52
2023/06/29 07:40:22;;;;;;;29.92;24.70;;;;;;;21.09;100.00;101251.06;5072936;28;20127;-51
2023/06/29 07:42:47;;;;;;;29.45;26.35;;;;;;;21.05;100.00;101236.13;5072784;28;20119;-53
2023/06/29 07:45:13;;;;;;;34.78;26.02;;;;;;;21.47;100.00;101311.78;5072473;28;20590;-58
2023/06/29 07:47:39;;;;;;;32.55;25.65;;;;;;;21.23;100.00;101242.91;5070860;28;20423;-53
2023/06/29 07:50:04;;;;;;;31.77;23.80;;;;;;;21.63;100.00;101299.00;5072504;28;20028;-52
2023/06/29 07:52:30;;;;;;;31.92;25.52;;;;;;;21.83;100.00;101298.47;5072767;28;20395;-52
2023/06/29 07:54:56;;;;;;;29.08;24.02;;;;;;;21.63;100.00;101230.22;5072640;28;20044;-56
2023/06/29 07:57:21;;;;;;;27.08;23.85;;;;;;;21.91;100.00;101239.81;5071331;28;20040;-57
2023/06/29 07:59:47;;;;;;;30.60;24.60;;;;;;;22.17;100.00;101240.59;5071064;28;20522;-51
2023/06/29 08:02:12;;;;;;;26.42;22.38;;;;;;;22.42;100.00;101237.75;5072411;28;20044;-54
2023/06/29 08:04:38;;;;;;;27.08;22.42;;;;;;;22.84;100.00;101298.09;5071135;28;20071;-55
2023/06/29 08:07:03;;;;;;;24.27;20.17;;;;;;;22.82;100.00;101302.75;5071222;28;20115;-57
2023/06/29 08:09:29;;;;;;;23.40;20.60;;;;;;;22.46;100.00;101258.03;5072426;28;20064;-52
2023/06/29 08:11:54;;;;;;;26.42;20.98;;;;;;;22.75;100.00;101304.16;5071614;28;20483;-50
2023/06/29 08:14:19;;;;;;;25.50;19.63;;;;;;;22.83;100.00;101297.25;5072447;28;20035;-51
2023/06/29 08:16:44;;;;;;;25.75;19.33;;;;;;;22.54;100.00;101247.56;5070953;28;20024;-52
2023/06/29 08:19:10;;;;;;;23.88;20.15;;;;;;;22.52;100.00;101237.94;5072426;28;20158;-54
2023/06/29 08:21:35;;;;;;;25.10;18.38;;;;;;;22.80;100.00;101296.59;5071346;28;20036;-55
2023/06/29 08:24:00;;;;;;;21.65;18.25;;;;;;;22.48;100.00;101261.44;5047763;28;20055;-54
2023/06/29 08:26:26;;;;;;;19.35;16.67;;;;;;;22.58;100.00;101305.41;5052109;28;20508;-55
2023/06/29 08:28:51;;;;;;;18.30;16.08;;;;;;;22.13;100.00;101239.09;5051975;28;20484;-52
2023/06/29 08:31:19;;;;;;;19.60;15.63;;;;;;;22.20;100.00;101256.44;5052015;28;20396;-52
2023/06/29 08:33:45;;;;;;;23.58;15.10;;;;;;;22.36;100.00;101291.88;5057802;28;20033;-54
2023/06/29 08:36:10;;;;;;;17.02;13.43;;;;;;;22.25;100.00;101287.31;5071226;28;20056;-58
2023/06/29 08:38:36;;;;;;;18.10;13.20;;;;;;;22.27;100.00;101304.13;5072308;28;20036;-56
2023/06/29 08:41:04;;;;;;;18.75;12.52;;;;;;;22.13;100.00;101269.44;5061268;28;20029;-56
2023/06/29 08:43:29;;;;;;;16.23;12.50;;;;;;;22.29;100.00;101283.44;5049878;28;20033;-51
2023/06/29 08:45:54;;;;;;;17.35;12.55;;;;;;;22.45;100.00;101299.22;5038199;28;20043;-53
2023/06/29 08:48:20;;;;;;;15.40;13.32;;;;;;;22.37;100.00;101294.44;5058094;28;20099;-54
2023/06/29 08:50:54;;;;;;;17.40;13.60;;;;;;;22.43;100.00;101295.81;5034597;28;20037;-55
2023/06/29 08:53:20;;;;;;;19.58;13.82;;;;;;;22.18;100.00;101236.94;5054226;28;20029;-51
2023/06/29 08:55:46;;;;;;;15.80;13.02;;;;;;;22.55;100.00;101289.53;5072280;28;20059;-53
2023/06/29 08:58:11;;;;;;;17.02;12.77;;;;;;;22.70;100.00;101298.28;5053990;28;20048;-55
2023/06/29 09:00:37;;;;;;;17.25;14.15;;;;;;;22.48;100.00;101264.13;5071996;28;20048;-56
2023/06/29 09:03:03;;;;;;;18.08;14.07;;;;;;;22.42;100.00;101230.59;5059612;28;20051;-54
2023/06/29 09:05:29;;;;;;;18.23;13.95;;;;;;;22.70;100.00;101275.00;5033958;28;20044;-55
2023/06/29 09:07:55;;;;;;;17.55;14.25;;;;;;;23.02;100.00;101290.47;5051795;28;20025;-54
2023/06/29 09:10:22;;;;;;;16.80;13.07;;;;;;;22.77;100.00;101245.84;5051472;28;20044;-56
2023/06/29 09:12:48;;;;;;;19.35;16.63;;;;;;;22.81;100.00;101247.34;5051467;28;20044;-54
2023/06/29 09:15:14;;;;;;;25.23;19.48;;;;;;;22.69;100.00;101248.28;5050352;28;20044;-59
2023/06/29 09:17:45;;;;;;;21.77;18.65;;;;;;;22.94;100.00;101257.00;5051222;28;20045;-54
2023/06/29 09:20:15;;;;;;;23.80;19.20;;;;;;;23.05;100.00;101249.97;5050888;28;20051;-51
2023/06/29 09:22:41;;;;;;;21.55;17.73;;;;;;;23.17;100.00;101246.31;5050170;28;20387;-51
2023/06/29 09:25:09;;;;;;;18.42;15.75;;;;;;;23.67;100.00;101237.78;5055158;28;20044;-59
2023/06/29 09:27:35;;;;;;;16.85;14.15;;;;;;;24.74;100.00;101311.41;5036447;28;20119;-56
2023/06/29 09:30:00;;;;;;;21.25;12.85;;;;;;;25.30;100.00;101298.53;5054990;28;20535;-52
2023/06/29 09:32:28;;;;;;;17.88;13.73;;;;;;;25.84;100.00;101290.13;5054263;28;20064;-54
2023/06/29 09:34:54;;;;;;;15.82;14.05;;;;;;;26.32;100.00;101321.84;5063779;28;20090;-52
2023/06/29 09:37:19;;;;;;;17.45;12.80;;;;;;;25.94;100.00;101261.38;5067050;28;20037;-54
2023/06/29 09:39:56;;;;;;;15.57;12.48;;;;;;;26.34;100.00;101327.94;5057602;28;20033;-54
2023/06/29 09:42:29;;;;;;;18.17;13.30;;;;;;;26.20;100.00;101326.50;5074911;28;20047;-55
2023/06/29 09:45:00;;;;;;;17.45;12.95;;;;;;;26.00;100.00;101268.91;5075019;28;20040;-51
2023/06/29 09:47:25;;;;;;;17.23;13.55;;;;;;;25.80;100.00;101247.41;5075009;28;20043;-50
2023/06/29 09:49:51;;;;;;;16.48;13.60;;;;;;;26.20;100.00;101324.66;5074861;28;20415;-54
2023/06/29 09:52:17;;;;;;;15.45;13.73;;;;;;;26.02;100.00;101323.56;5074718;28;20029;-51
2023/06/29 09:54:43;;;;;;;19.25;14.68;;;;;;;25.29;100.00;101253.69;5072319;28;20036;-52
2023/06/29 09:57:10;;;;;;;16.50;14.15;;;;;;;25.02;100.00;101316.19;5056632;28;20506;-53
2023/06/29 09:59:40;;;;;;;14.60;12.80;;;;;;;24.66;100.00;101284.28;5074519;28;20048;-53
2023/06/29 10:02:11;;;;;;;16.27;14.13;;;;;;;24.66;100.00;101310.34;5074796;28;20085;-50
2023/06/29 10:04:38;;;;;;;16.95;12.93;;;;;;;24.41;100.00;101314.22;5074697;28;20046;-53
2023/06/29 10:07:08;;;;;;;14.00;12.30;;;;;;;24.28;100.00;101310.84;5074379;28;20060;-58
2023/06/29 10:09:40;;;;;;;14.73;12.75;;;;;;;24.28;100.00;101313.53;5074469;28;20044;-54
2023/06/29 10:12:08;;;;;;;18.13;13.00;;;;;;;23.90;100.00;101255.63;5062622;28;20056;-52
2023/06/29 10:14:34;;;;;;;15.02;13.35;;;;;;;24.21;100.00;101302.41;5064687;28;20068;-52
2023/06/29 10:17:00;;;;;;;16.88;13.20;;;;;;;24.07;100.00;101240.78;5020149;28;20062;-53
2023/06/29 10:19:26;;;;;;;14.65;11.88;;;;;;;24.90;100.00;101329.84;5049078;28;20548;-57
2023/06/29 10:22:12;;;;;;;17.77;13.43;;;;;;;25.01;100.00;101319.88;5056500;28;20067;-53
2023/06/29 10:24:41;;;;;;;13.98;12.48;;;;;;;25.02;100.00;101329.66;5074397;28;20094;-54
2023/06/29 10:27:07;;;;;;;13.60;11.43;;;;;;;25.36;100.00;101271.06;5056431;28;20153;-50
2023/06/29 10:29:43;;;;;;;15.18;12.57;;;;;;;25.66;100.00;101264.81;5055731;28;20033;-51
2023/06/29 10:32:09;;;;;;;16.85;12.95;;;;;;;25.95;100.00;101327.78;5069456;28;20032;-53
2023/06/29 10:34:53;;;;;;;14.02;12.15;;;;;;;25.60;100.00;101262.66;5068610;28;20037;-56
2023/06/29 10:37:38;;;;;;;13.15;11.50;;;;;;;25.51;100.00;101258.09;5036058;28;20106;-48
2023/06/29 10:40:20;;;;;;;17.35;12.85;;;;;;;25.45;100.00;101312.50;5039397;28;20381;-52
2023/06/29 10:42:45;;;;;;;15.48;12.13;;;;;;;24.89;100.00;101315.53;5064026;28;20029;-52
2023/06/29 10:45:17;;;;;;;18.92;15.90;;;;;;;24.67;100.00;101317.41;5073879;28;20365;-55
2023/06/29 10:47:43;;;;;;;19.95;14.82;;;;;;;24.33;100.00;101252.97;5055125;28;20029;-52
2023/06/29 10:50:08;;;;;;;16.67;15.00;;;;;;;24.84;100.00;101320.44;5052629;28;20439;-54
2023/06/29 10:52:34;;;;;;;16.15;14.45;;;;;;;24.69;100.00;101299.31;5058226;28;20041;-54
2023/06/29 10:55:38;;;;;;;16.38;14.60;;;;;;;24.93;100.00;101319.66;5040734;28;20476;-56
2023/06/29 10:58:30;;;;;;;16.13;14.30;;;;;;;25.35;100.00;101317.84;5044561;28;20126;-55